sensor_id;sensor_type;location;lat;lon;timestamp;P1;durP1;ratioP1;P2;durP2;ratioP2
13455;SDS011;6800;50.940;6.940;2022-07-17T00:02:33;3.50;;;2.10;;
13455;SDS011;6800;50.940;6.940;2022-07-17T00:06:33;4.35;;;2.33;;
13455;SDS011;6800;50.940;6.940;2022-07-17T00:10:34;5.13;;;2.92;;
13455;SDS011;6800;50.940;6.940;2022-07-17T00:14:35;6.07;;;2.50;;
13455;SDS011;6800;50.940;6.940;2022-07-17T00:18:36;5.57;;;2.07;;
13455;SDS011;6800;50.940;6.940;2022-07-17T00:22:36;4.97;;;2.40;;
13455;SDS011;6800;50.940;6.940;2022-07-17T00:26:36;5.22;;;2.10;;
13455;SDS011;6800;50.940;6.940;2022-07-17T00:30:37;4.57;;;2.17;;
13455;SDS011;6800;50.940;6.940;2022-07-17T00:34:38;4.75;;;2.20;;
13455;SDS011;6800;50.940;6.940;2022-07-17T00:38:38;7.82;;;2.65;;
13455;SDS011;6800;50.940;6.940;2022-07-17T00:42:39;3.10;;;2.00;;
13455;SDS011;6800;50.940;6.940;2022-07-17T00:46:41;6.23;;;2.87;;
13455;SDS011;6800;50.940;6.940;2022-07-17T00:50:41;5.30;;;2.20;;
13455;SDS011;6800;50.940;6.940;2022-07-17T00:54:43;4.03;;;2.27;;
13455;SDS011;6800;50.940;6.940;2022-07-17T00:58:44;4.17;;;1.90;;
13455;SDS011;6800;50.940;6.940;2022-07-17T01:02:45;10.23;;;2.60;;
13455;SDS011;6800;50.940;6.940;2022-07-17T01:06:49;4.70;;;2.40;;
13455;SDS011;6800;50.940;6.940;2022-07-17T01:10:49;4.70;;;2.30;;
13455;SDS011;6800;50.940;6.940;2022-07-17T01:14:51;4.53;;;2.43;;
13455;SDS011;6800;50.940;6.940;2022-07-17T01:18:52;3.77;;;2.10;;
13455;SDS011;6800;50.940;6.940;2022-07-17T01:22:53;5.03;;;2.13;;
13455;SDS011;6800;50.940;6.940;2022-07-17T01:26:54;5.23;;;2.10;;
13455;SDS011;6800;50.940;6.940;2022-07-17T01:30:54;4.70;;;2.83;;
13455;SDS011;6800;50.940;6.940;2022-07-17T01:34:54;5.03;;;1.97;;
13455;SDS011;6800;50.940;6.940;2022-07-17T01:38:55;4.40;;;2.50;;
13455;SDS011;6800;50.940;6.940;2022-07-17T01:42:57;5.83;;;2.30;;
13455;SDS011;6800;50.940;6.940;2022-07-17T01:46:57;4.93;;;2.90;;
13455;SDS011;6800;50.940;6.940;2022-07-17T01:50:57;5.33;;;3.07;;
13455;SDS011;6800;50.940;6.940;2022-07-17T01:54:58;6.70;;;2.70;;
13455;SDS011;6800;50.940;6.940;2022-07-17T01:58:58;5.13;;;2.30;;
13455;SDS011;6800;50.940;6.940;2022-07-17T02:02:59;6.93;;;2.57;;
13455;SDS011;6800;50.940;6.940;2022-07-17T02:06:59;4.80;;;2.57;;
13455;SDS011;6800;50.940;6.940;2022-07-17T02:11:00;9.97;;;2.40;;
13455;SDS011;6800;50.940;6.940;2022-07-17T02:15:01;4.37;;;2.40;;
13455;SDS011;6800;50.940;6.940;2022-07-17T02:19:02;4.90;;;2.40;;
13455;SDS011;6800;50.940;6.940;2022-07-17T02:23:02;3.57;;;2.17;;
13455;SDS011;6800;50.940;6.940;2022-07-17T02:27:03;3.57;;;2.23;;
13455;SDS011;6800;50.940;6.940;2022-07-17T02:31:03;4.50;;;2.30;;
13455;SDS011;6800;50.940;6.940;2022-07-17T02:35:04;5.13;;;2.43;;
13455;SDS011;6800;50.940;6.940;2022-07-17T02:39:05;6.63;;;2.53;;
13455;SDS011;6800;50.940;6.940;2022-07-17T02:43:05;4.53;;;2.37;;
13455;SDS011;6800;50.940;6.940;2022-07-17T02:47:06;3.60;;;2.37;;
13455;SDS011;6800;50.940;6.940;2022-07-17T02:51:06;7.63;;;2.90;;
13455;SDS011;6800;50.940;6.940;2022-07-17T02:55:06;6.93;;;2.90;;
13455;SDS011;6800;50.940;6.940;2022-07-17T02:59:07;7.43;;;3.30;;
13455;SDS011;6800;50.940;6.940;2022-07-17T03:03:08;4.60;;;2.77;;
13455;SDS011;6800;50.940;6.940;2022-07-17T03:07:08;5.00;;;2.80;;
13455;SDS011;6800;50.940;6.940;2022-07-17T03:11:08;6.10;;;2.73;;
13455;SDS011;6800;50.940;6.940;2022-07-17T03:15:10;5.13;;;3.00;;
13455;SDS011;6800;50.940;6.940;2022-07-17T03:19:10;4.20;;;2.60;;
13455;SDS011;6800;50.940;6.940;2022-07-17T03:23:10;5.47;;;2.60;;
13455;SDS011;6800;50.940;6.940;2022-07-17T03:27:11;5.07;;;2.60;;
13455;SDS011;6800;50.940;6.940;2022-07-17T03:31:11;5.33;;;2.53;;
13455;SDS011;6800;50.940;6.940;2022-07-17T03:35:11;4.57;;;2.60;;
13455;SDS011;6800;50.940;6.940;2022-07-17T03:39:12;6.83;;;3.00;;
13455;SDS011;6800;50.940;6.940;2022-07-17T03:43:12;4.40;;;2.70;;
13455;SDS011;6800;50.940;6.940;2022-07-17T03:47:13;4.93;;;2.73;;
13455;SDS011;6800;50.940;6.940;2022-07-17T03:51:14;5.23;;;3.00;;
13455;SDS011;6800;50.940;6.940;2022-07-17T03:55:14;4.07;;;2.40;;
13455;SDS011;6800;50.940;6.940;2022-07-17T03:59:15;5.50;;;2.47;;
13455;SDS011;6800;50.940;6.940;2022-07-17T04:03:15;2.73;;;2.30;;
13455;SDS011;6800;50.940;6.940;2022-07-17T04:07:15;6.60;;;2.70;;
13455;SDS011;6800;50.940;6.940;2022-07-17T04:11:28;5.07;;;2.47;;
13455;SDS011;6800;50.940;6.940;2022-07-17T04:15:28;4.30;;;2.70;;
13455;SDS011;6800;50.940;6.940;2022-07-17T04:19:47;5.77;;;2.77;;
13455;SDS011;6800;50.940;6.940;2022-07-17T04:23:48;5.20;;;3.10;;
13455;SDS011;6800;50.940;6.940;2022-07-17T04:27:48;4.40;;;2.73;;
13455;SDS011;6800;50.940;6.940;2022-07-17T04:31:48;4.80;;;3.00;;
13455;SDS011;6800;50.940;6.940;2022-07-17T04:35:49;3.00;;;2.70;;
13455;SDS011;6800;50.940;6.940;2022-07-17T04:39:49;5.23;;;2.83;;
13455;SDS011;6800;50.940;6.940;2022-07-17T04:43:50;4.53;;;3.07;;
13455;SDS011;6800;50.940;6.940;2022-07-17T04:47:50;4.80;;;2.90;;
13455;SDS011;6800;50.940;6.940;2022-07-17T04:51:51;3.57;;;2.50;;
13455;SDS011;6800;50.940;6.940;2022-07-17T04:55:51;3.57;;;2.60;;
13455;SDS011;6800;50.940;6.940;2022-07-17T04:59:51;6.67;;;2.83;;
13455;SDS011;6800;50.940;6.940;2022-07-17T05:03:52;4.40;;;2.47;;
13455;SDS011;6800;50.940;6.940;2022-07-17T05:07:52;4.30;;;3.07;;
13455;SDS011;6800;50.940;6.940;2022-07-17T05:11:53;5.80;;;3.17;;
13455;SDS011;6800;50.940;6.940;2022-07-17T05:15:53;6.17;;;2.90;;
13455;SDS011;6800;50.940;6.940;2022-07-17T05:19:54;5.40;;;2.90;;
13455;SDS011;6800;50.940;6.940;2022-07-17T05:23:54;4.27;;;2.60;;
13455;SDS011;6800;50.940;6.940;2022-07-17T05:27:54;3.97;;;2.80;;
13455;SDS011;6800;50.940;6.940;2022-07-17T05:31:54;3.07;;;2.27;;
13455;SDS011;6800;50.940;6.940;2022-07-17T05:35:55;3.77;;;2.50;;
13455;SDS011;6800;50.940;6.940;2022-07-17T05:39:55;3.33;;;2.40;;
13455;SDS011;6800;50.940;6.940;2022-07-17T05:43:55;3.70;;;2.25;;
13455;SDS011;6800;50.940;6.940;2022-07-17T05:47:56;2.75;;;2.20;;
13455;SDS011;6800;50.940;6.940;2022-07-17T05:51:56;3.05;;;2.25;;
13455;SDS011;6800;50.940;6.940;2022-07-17T05:55:56;6.22;;;2.42;;
13455;SDS011;6800;50.940;6.940;2022-07-17T05:59:57;4.97;;;2.50;;
13455;SDS011;6800;50.940;6.940;2022-07-17T06:03:57;5.80;;;2.75;;
13455;SDS011;6800;50.940;6.940;2022-07-17T06:07:57;5.75;;;2.95;;
13455;SDS011;6800;50.940;6.940;2022-07-17T06:11:58;3.08;;;2.50;;
13455;SDS011;6800;50.940;6.940;2022-07-17T06:15:58;7.13;;;2.60;;
13455;SDS011;6800;50.940;6.940;2022-07-17T06:19:59;4.72;;;2.40;;
13455;SDS011;6800;50.940;6.940;2022-07-17T06:23:59;5.72;;;2.70;;
13455;SDS011;6800;50.940;6.940;2022-07-17T06:27:59;5.00;;;2.50;;
13455;SDS011;6800;50.940;6.940;2022-07-17T06:31:59;6.82;;;2.63;;
13455;SDS011;6800;50.940;6.940;2022-07-17T06:36:00;4.88;;;2.60;;
13455;SDS011;6800;50.940;6.940;2022-07-17T06:40:01;5.18;;;2.95;;
13455;SDS011;6800;50.940;6.940;2022-07-17T06:44:02;4.40;;;2.17;;
13455;SDS011;6800;50.940;6.940;2022-07-17T06:48:03;3.70;;;1.88;;
13455;SDS011;6800;50.940;6.940;2022-07-17T06:52:04;5.78;;;2.58;;
13455;SDS011;6800;50.940;6.940;2022-07-17T06:56:04;6.10;;;1.90;;
13455;SDS011;6800;50.940;6.940;2022-07-17T07:00:05;3.35;;;1.90;;
13455;SDS011;6800;50.940;6.940;2022-07-17T07:04:06;4.72;;;1.70;;
13455;SDS011;6800;50.940;6.940;2022-07-17T07:08:06;3.80;;;2.10;;
13455;SDS011;6800;50.940;6.940;2022-07-17T07:12:06;3.20;;;2.03;;
13455;SDS011;6800;50.940;6.940;2022-07-17T07:16:07;3.13;;;1.83;;
13455;SDS011;6800;50.940;6.940;2022-07-17T07:20:08;3.80;;;1.65;;
13455;SDS011;6800;50.940;6.940;2022-07-17T07:24:09;4.22;;;1.98;;
13455;SDS011;6800;50.940;6.940;2022-07-17T07:28:09;4.35;;;1.77;;
13455;SDS011;6800;50.940;6.940;2022-07-17T07:32:10;3.42;;;1.90;;
13455;SDS011;6800;50.940;6.940;2022-07-17T07:36:11;2.83;;;1.70;;
13455;SDS011;6800;50.940;6.940;2022-07-17T07:40:12;4.35;;;1.60;;
13455;SDS011;6800;50.940;6.940;2022-07-17T07:44:13;2.85;;;1.60;;
13455;SDS011;6800;50.940;6.940;2022-07-17T07:48:13;3.08;;;1.75;;
13455;SDS011;6800;50.940;6.940;2022-07-17T07:52:13;3.03;;;1.80;;
13455;SDS011;6800;50.940;6.940;2022-07-17T07:56:13;2.65;;;1.55;;
13455;SDS011;6800;50.940;6.940;2022-07-17T08:00:14;3.23;;;1.33;;
13455;SDS011;6800;50.940;6.940;2022-07-17T08:04:15;2.35;;;1.40;;
13455;SDS011;6800;50.940;6.940;2022-07-17T08:08:16;3.30;;;1.30;;
13455;SDS011;6800;50.940;6.940;2022-07-17T08:12:16;5.67;;;1.80;;
13455;SDS011;6800;50.940;6.940;2022-07-17T08:16:16;3.50;;;1.70;;
13455;SDS011;6800;50.940;6.940;2022-07-17T08:20:17;3.03;;;1.60;;
13455;SDS011;6800;50.940;6.940;2022-07-17T08:24:18;4.22;;;1.70;;
13455;SDS011;6800;50.940;6.940;2022-07-17T08:28:18;3.97;;;1.52;;
13455;SDS011;6800;50.940;6.940;2022-07-17T08:32:18;3.53;;;1.42;;
13455;SDS011;6800;50.940;6.940;2022-07-17T08:36:19;4.13;;;1.53;;
13455;SDS011;6800;50.940;6.940;2022-07-17T08:40:21;5.00;;;1.67;;
13455;SDS011;6800;50.940;6.940;2022-07-17T08:44:23;3.45;;;1.55;;
13455;SDS011;6800;50.940;6.940;2022-07-17T08:48:23;5.38;;;2.80;;
13455;SDS011;6800;50.940;6.940;2022-07-17T08:52:26;2.75;;;1.20;;
13455;SDS011;6800;50.940;6.940;2022-07-17T08:56:27;3.47;;;1.50;;
13455;SDS011;6800;50.940;6.940;2022-07-17T09:00:28;2.03;;;1.10;;
13455;SDS011;6800;50.940;6.940;2022-07-17T09:04:28;5.35;;;1.52;;
13455;SDS011;6800;50.940;6.940;2022-07-17T09:08:29;4.30;;;1.40;;
13455;SDS011;6800;50.940;6.940;2022-07-17T09:12:33;2.13;;;0.88;;
13455;SDS011;6800;50.940;6.940;2022-07-17T09:16:48;2.85;;;1.17;;
13455;SDS011;6800;50.940;6.940;2022-07-17T09:20:53;2.75;;;1.13;;
13455;SDS011;6800;50.940;6.940;2022-07-17T09:24:57;3.30;;;1.08;;
13455;SDS011;6800;50.940;6.940;2022-07-17T09:29:00;3.10;;;1.10;;
13455;SDS011;6800;50.940;6.940;2022-07-17T09:33:00;3.60;;;1.35;;
13455;SDS011;6800;50.940;6.940;2022-07-17T09:37:01;2.75;;;1.02;;
13455;SDS011;6800;50.940;6.940;2022-07-17T09:41:06;4.53;;;1.10;;
13455;SDS011;6800;50.940;6.940;2022-07-17T09:45:12;2.35;;;1.02;;
13455;SDS011;6800;50.940;6.940;2022-07-17T09:49:12;2.08;;;1.23;;
13455;SDS011;6800;50.940;6.940;2022-07-17T09:53:13;3.97;;;1.00;;
13455;SDS011;6800;50.940;6.940;2022-07-17T09:57:15;3.88;;;1.40;;
13455;SDS011;6800;50.940;6.940;2022-07-17T10:01:16;4.05;;;1.02;;
13455;SDS011;6800;50.940;6.940;2022-07-17T10:05:18;2.88;;;1.35;;
13455;SDS011;6800;50.940;6.940;2022-07-17T10:09:18;1.77;;;0.90;;
13455;SDS011;6800;50.940;6.940;2022-07-17T10:13:20;2.75;;;1.10;;
13455;SDS011;6800;50.940;6.940;2022-07-17T10:17:21;2.88;;;1.00;;
13455;SDS011;6800;50.940;6.940;2022-07-17T10:21:22;2.15;;;1.02;;
13455;SDS011;6800;50.940;6.940;2022-07-17T10:25:23;3.88;;;1.98;;
13455;SDS011;6800;50.940;6.940;2022-07-17T10:29:34;3.53;;;1.30;;
13455;SDS011;6800;50.940;6.940;2022-07-17T10:33:36;2.78;;;1.17;;
13455;SDS011;6800;50.940;6.940;2022-07-17T10:41:37;4.03;;;1.60;;
13455;SDS011;6800;50.940;6.940;2022-07-17T10:45:42;3.40;;;1.20;;
13455;SDS011;6800;50.940;6.940;2022-07-17T10:49:45;2.60;;;1.15;;
13455;SDS011;6800;50.940;6.940;2022-07-17T10:53:45;3.53;;;1.25;;
13455;SDS011;6800;50.940;6.940;2022-07-17T10:57:46;2.85;;;1.58;;
13455;SDS011;6800;50.940;6.940;2022-07-17T11:01:55;2.30;;;1.17;;
13455;SDS011;6800;50.940;6.940;2022-07-17T11:06:05;3.08;;;1.25;;
13455;SDS011;6800;50.940;6.940;2022-07-17T11:10:13;3.67;;;1.63;;
13455;SDS011;6800;50.940;6.940;2022-07-17T11:14:15;4.13;;;1.10;;
13455;SDS011;6800;50.940;6.940;2022-07-17T11:18:19;3.83;;;1.42;;
13455;SDS011;6800;50.940;6.940;2022-07-17T11:22:23;3.08;;;1.10;;
13455;SDS011;6800;50.940;6.940;2022-07-17T11:26:29;1.90;;;1.25;;
13455;SDS011;6800;50.940;6.940;2022-07-17T11:30:30;2.85;;;1.20;;
13455;SDS011;6800;50.940;6.940;2022-07-17T11:34:30;3.30;;;1.10;;
13455;SDS011;6800;50.940;6.940;2022-07-17T11:38:30;3.15;;;1.10;;
13455;SDS011;6800;50.940;6.940;2022-07-17T11:42:30;4.20;;;1.90;;
13455;SDS011;6800;50.940;6.940;2022-07-17T11:46:31;2.38;;;1.20;;
13455;SDS011;6800;50.940;6.940;2022-07-17T11:50:33;3.78;;;1.30;;
13455;SDS011;6800;50.940;6.940;2022-07-17T11:54:42;3.17;;;1.30;;
13455;SDS011;6800;50.940;6.940;2022-07-17T11:58:56;4.13;;;1.20;;
13455;SDS011;6800;50.940;6.940;2022-07-17T12:03:04;3.72;;;1.40;;
13455;SDS011;6800;50.940;6.940;2022-07-17T12:07:06;2.95;;;1.30;;
13455;SDS011;6800;50.940;6.940;2022-07-17T12:11:07;2.20;;;1.20;;
13455;SDS011;6800;50.940;6.940;2022-07-17T12:15:12;4.50;;;1.38;;
13455;SDS011;6800;50.940;6.940;2022-07-17T12:19:17;3.70;;;1.40;;
13455;SDS011;6800;50.940;6.940;2022-07-17T12:23:35;3.95;;;1.35;;
13455;SDS011;6800;50.940;6.940;2022-07-17T12:27:38;6.00;;;1.55;;
13455;SDS011;6800;50.940;6.940;2022-07-17T12:31:38;2.70;;;1.40;;
13455;SDS011;6800;50.940;6.940;2022-07-17T12:35:39;3.20;;;1.20;;
13455;SDS011;6800;50.940;6.940;2022-07-17T12:39:39;4.00;;;1.77;;
13455;SDS011;6800;50.940;6.940;2022-07-17T12:43:41;3.47;;;1.67;;
13455;SDS011;6800;50.940;6.940;2022-07-17T12:47:45;4.90;;;1.65;;
13455;SDS011;6800;50.940;6.940;2022-07-17T12:51:45;3.45;;;1.67;;
13455;SDS011;6800;50.940;6.940;2022-07-17T12:55:46;3.78;;;1.33;;
13455;SDS011;6800;50.940;6.940;2022-07-17T12:59:46;3.35;;;1.73;;
13455;SDS011;6800;50.940;6.940;2022-07-17T13:03:46;4.70;;;1.50;;
13455;SDS011;6800;50.940;6.940;2022-07-17T13:07:48;3.08;;;1.40;;
13455;SDS011;6800;50.940;6.940;2022-07-17T13:11:49;2.70;;;1.33;;
13455;SDS011;6800;50.940;6.940;2022-07-17T13:15:53;3.40;;;1.55;;
13455;SDS011;6800;50.940;6.940;2022-07-17T13:19:54;2.15;;;1.17;;
13455;SDS011;6800;50.940;6.940;2022-07-17T13:23:54;5.18;;;1.45;;
13455;SDS011;6800;50.940;6.940;2022-07-17T13:27:55;2.65;;;1.35;;
13455;SDS011;6800;50.940;6.940;2022-07-17T13:31:55;3.45;;;1.50;;
13455;SDS011;6800;50.940;6.940;2022-07-17T13:35:55;4.07;;;1.77;;
13455;SDS011;6800;50.940;6.940;2022-07-17T13:39:56;1.90;;;1.35;;
13455;SDS011;6800;50.940;6.940;2022-07-17T13:43:56;3.25;;;1.20;;
13455;SDS011;6800;50.940;6.940;2022-07-17T13:47:57;2.47;;;1.23;;
13455;SDS011;6800;50.940;6.940;2022-07-17T13:51:57;3.65;;;1.40;;
13455;SDS011;6800;50.940;6.940;2022-07-17T13:55:57;2.83;;;1.63;;
13455;SDS011;6800;50.940;6.940;2022-07-17T13:59:59;2.70;;;1.30;;
13455;SDS011;6800;50.940;6.940;2022-07-17T14:04:00;3.30;;;1.38;;
13455;SDS011;6800;50.940;6.940;2022-07-17T14:08:01;2.05;;;1.30;;
13455;SDS011;6800;50.940;6.940;2022-07-17T14:12:02;4.20;;;1.70;;
13455;SDS011;6800;50.940;6.940;2022-07-17T14:16:03;2.85;;;1.40;;
13455;SDS011;6800;50.940;6.940;2022-07-17T14:20:03;2.88;;;1.55;;
13455;SDS011;6800;50.940;6.940;2022-07-17T14:24:05;3.42;;;1.40;;
13455;SDS011;6800;50.940;6.940;2022-07-17T14:28:06;2.00;;;1.40;;
13455;SDS011;6800;50.940;6.940;2022-07-17T14:32:07;3.13;;;1.50;;
13455;SDS011;6800;50.940;6.940;2022-07-17T14:36:09;3.55;;;1.30;;
13455;SDS011;6800;50.940;6.940;2022-07-17T14:40:13;1.92;;;1.13;;
13455;SDS011;6800;50.940;6.940;2022-07-17T14:44:13;4.68;;;1.80;;
13455;SDS011;6800;50.940;6.940;2022-07-17T14:48:13;3.00;;;1.50;;
13455;SDS011;6800;50.940;6.940;2022-07-17T14:52:14;3.10;;;1.40;;
13455;SDS011;6800;50.940;6.940;2022-07-17T14:56:14;3.00;;;1.33;;
13455;SDS011;6800;50.940;6.940;2022-07-17T15:00:15;4.47;;;1.75;;
13455;SDS011;6800;50.940;6.940;2022-07-17T15:04:16;2.97;;;1.67;;
13455;SDS011;6800;50.940;6.940;2022-07-17T15:08:16;3.28;;;1.42;;
13455;SDS011;6800;50.940;6.940;2022-07-17T15:12:17;2.53;;;1.48;;
13455;SDS011;6800;50.940;6.940;2022-07-17T15:16:17;3.78;;;1.58;;
13455;SDS011;6800;50.940;6.940;2022-07-17T15:20:18;4.43;;;1.38;;
13455;SDS011;6800;50.940;6.940;2022-07-17T15:24:18;3.42;;;1.70;;
13455;SDS011;6800;50.940;6.940;2022-07-17T15:28:19;5.65;;;1.67;;
13455;SDS011;6800;50.940;6.940;2022-07-17T15:32:19;4.25;;;1.60;;
13455;SDS011;6800;50.940;6.940;2022-07-17T15:36:20;3.67;;;1.88;;
13455;SDS011;6800;50.940;6.940;2022-07-17T15:40:26;3.08;;;1.45;;
13455;SDS011;6800;50.940;6.940;2022-07-17T15:44:27;3.30;;;1.63;;
13455;SDS011;6800;50.940;6.940;2022-07-17T15:48:28;3.70;;;1.55;;
13455;SDS011;6800;50.940;6.940;2022-07-17T15:52:28;2.78;;;1.40;;
13455;SDS011;6800;50.940;6.940;2022-07-17T15:56:28;3.55;;;1.88;;
13455;SDS011;6800;50.940;6.940;2022-07-17T16:00:29;3.45;;;1.60;;
13455;SDS011;6800;50.940;6.940;2022-07-17T16:04:29;5.07;;;1.35;;
13455;SDS011;6800;50.940;6.940;2022-07-17T16:08:29;4.13;;;1.50;;
13455;SDS011;6800;50.940;6.940;2022-07-17T16:12:30;2.55;;;1.85;;
13455;SDS011;6800;50.940;6.940;2022-07-17T16:16:31;3.55;;;1.40;;
13455;SDS011;6800;50.940;6.940;2022-07-17T16:20:32;2.53;;;1.70;;
13455;SDS011;6800;50.940;6.940;2022-07-17T16:24:32;4.75;;;1.67;;
13455;SDS011;6800;50.940;6.940;2022-07-17T16:28:32;4.18;;;2.00;;
13455;SDS011;6800;50.940;6.940;2022-07-17T16:32:33;2.83;;;1.40;;
13455;SDS011;6800;50.940;6.940;2022-07-17T16:36:34;4.38;;;2.10;;
13455;SDS011;6800;50.940;6.940;2022-07-17T16:40:35;3.75;;;1.85;;
13455;SDS011;6800;50.940;6.940;2022-07-17T16:44:35;2.90;;;1.73;;
13455;SDS011;6800;50.940;6.940;2022-07-17T16:48:35;3.88;;;2.13;;
13455;SDS011;6800;50.940;6.940;2022-07-17T16:52:36;5.05;;;2.38;;
13455;SDS011;6800;50.940;6.940;2022-07-17T16:56:37;4.93;;;2.30;;
13455;SDS011;6800;50.940;6.940;2022-07-17T17:00:37;3.90;;;2.03;;
13455;SDS011;6800;50.940;6.940;2022-07-17T17:04:39;2.92;;;1.88;;
13455;SDS011;6800;50.940;6.940;2022-07-17T17:08:40;4.28;;;1.75;;
13455;SDS011;6800;50.940;6.940;2022-07-17T17:12:40;3.38;;;1.80;;
13455;SDS011;6800;50.940;6.940;2022-07-17T17:16:43;3.83;;;1.80;;
13455;SDS011;6800;50.940;6.940;2022-07-17T17:20:43;3.43;;;1.60;;
13455;SDS011;6800;50.940;6.940;2022-07-17T17:24:44;4.43;;;1.98;;
13455;SDS011;6800;50.940;6.940;2022-07-17T17:28:46;4.03;;;1.83;;
13455;SDS011;6800;50.940;6.940;2022-07-17T17:32:47;2.95;;;1.70;;
13455;SDS011;6800;50.940;6.940;2022-07-17T17:36:49;3.65;;;1.50;;
13455;SDS011;6800;50.940;6.940;2022-07-17T17:40:49;3.30;;;1.88;;
13455;SDS011;6800;50.940;6.940;2022-07-17T17:44:50;2.40;;;1.90;;
13455;SDS011;6800;50.940;6.940;2022-07-17T17:48:50;3.17;;;1.95;;
13455;SDS011;6800;50.940;6.940;2022-07-17T17:52:51;5.03;;;1.63;;
13455;SDS011;6800;50.940;6.940;2022-07-17T17:56:51;3.42;;;2.08;;
13455;SDS011;6800;50.940;6.940;2022-07-17T18:00:52;4.47;;;1.88;;
13455;SDS011;6800;50.940;6.940;2022-07-17T18:04:52;2.92;;;1.42;;
13455;SDS011;6800;50.940;6.940;2022-07-17T18:08:53;3.88;;;1.90;;
13455;SDS011;6800;50.940;6.940;2022-07-17T18:12:53;3.50;;;1.70;;
13455;SDS011;6800;50.940;6.940;2022-07-17T18:16:53;4.47;;;2.10;;
13455;SDS011;6800;50.940;6.940;2022-07-17T18:20:53;2.33;;;1.70;;
13455;SDS011;6800;50.940;6.940;2022-07-17T18:24:54;3.53;;;1.80;;
13455;SDS011;6800;50.940;6.940;2022-07-17T18:28:54;3.53;;;1.80;;
13455;SDS011;6800;50.940;6.940;2022-07-17T18:32:54;3.33;;;1.90;;
13455;SDS011;6800;50.940;6.940;2022-07-17T18:36:55;2.28;;;1.65;;
13455;SDS011;6800;50.940;6.940;2022-07-17T18:40:55;3.25;;;1.55;;
13455;SDS011;6800;50.940;6.940;2022-07-17T18:44:55;2.92;;;1.63;;
13455;SDS011;6800;50.940;6.940;2022-07-17T18:48:56;3.30;;;1.83;;
13455;SDS011;6800;50.940;6.940;2022-07-17T18:52:56;3.45;;;1.70;;
13455;SDS011;6800;50.940;6.940;2022-07-17T18:57:00;2.95;;;1.70;;
13455;SDS011;6800;50.940;6.940;2022-07-17T19:01:00;4.85;;;2.22;;
13455;SDS011;6800;50.940;6.940;2022-07-17T19:05:01;4.40;;;2.00;;
13455;SDS011;6800;50.940;6.940;2022-07-17T19:09:03;4.97;;;2.22;;
13455;SDS011;6800;50.940;6.940;2022-07-17T19:13:04;2.88;;;2.05;;
13455;SDS011;6800;50.940;6.940;2022-07-17T19:17:05;3.33;;;1.85;;
13455;SDS011;6800;50.940;6.940;2022-07-17T19:21:05;3.50;;;1.92;;
13455;SDS011;6800;50.940;6.940;2022-07-17T19:25:05;4.07;;;1.90;;
13455;SDS011;6800;50.940;6.940;2022-07-17T19:29:07;3.42;;;2.17;;
13455;SDS011;6800;50.940;6.940;2022-07-17T19:33:07;3.13;;;2.17;;
13455;SDS011;6800;50.940;6.940;2022-07-17T19:37:08;2.97;;;2.10;;
13455;SDS011;6800;50.940;6.940;2022-07-17T19:41:08;5.32;;;2.30;;
13455;SDS011;6800;50.940;6.940;2022-07-17T19:45:09;2.65;;;1.95;;
13455;SDS011;6800;50.940;6.940;2022-07-17T19:49:09;4.72;;;1.83;;
13455;SDS011;6800;50.940;6.940;2022-07-17T19:53:10;5.22;;;2.20;;
13455;SDS011;6800;50.940;6.940;2022-07-17T19:57:13;4.97;;;2.05;;
13455;SDS011;6800;50.940;6.940;2022-07-17T20:01:14;4.35;;;2.15;;
13455;SDS011;6800;50.940;6.940;2022-07-17T20:05:16;4.38;;;2.13;;
13455;SDS011;6800;50.940;6.940;2022-07-17T20:09:17;3.35;;;1.77;;
13455;SDS011;6800;50.940;6.940;2022-07-17T20:13:18;3.53;;;2.10;;
13455;SDS011;6800;50.940;6.940;2022-07-17T20:17:18;6.25;;;2.70;;
13455;SDS011;6800;50.940;6.940;2022-07-17T20:21:19;4.18;;;2.10;;
13455;SDS011;6800;50.940;6.940;2022-07-17T20:25:19;3.67;;;2.00;;
13455;SDS011;6800;50.940;6.940;2022-07-17T20:29:20;3.25;;;2.63;;
13455;SDS011;6800;50.940;6.940;2022-07-17T20:33:20;4.03;;;2.20;;
13455;SDS011;6800;50.940;6.940;2022-07-17T20:37:20;4.88;;;2.10;;
13455;SDS011;6800;50.940;6.940;2022-07-17T20:41:21;4.97;;;2.42;;
13455;SDS011;6800;50.940;6.940;2022-07-17T20:45:22;3.28;;;2.70;;
13455;SDS011;6800;50.940;6.940;2022-07-17T20:49:22;4.63;;;2.05;;
13455;SDS011;6800;50.940;6.940;2022-07-17T20:53:22;5.80;;;2.03;;
13455;SDS011;6800;50.940;6.940;2022-07-17T20:57:24;5.10;;;2.33;;
13455;SDS011;6800;50.940;6.940;2022-07-17T21:01:24;3.22;;;2.25;;
13455;SDS011;6800;50.940;6.940;2022-07-17T21:05:26;5.45;;;2.40;;
13455;SDS011;6800;50.940;6.940;2022-07-17T21:09:27;3.25;;;1.98;;
13455;SDS011;6800;50.940;6.940;2022-07-17T21:13:27;4.40;;;2.13;;
13455;SDS011;6800;50.940;6.940;2022-07-17T21:17:28;3.78;;;2.60;;
13455;SDS011;6800;50.940;6.940;2022-07-17T21:21:28;4.78;;;3.17;;
13455;SDS011;6800;50.940;6.940;2022-07-17T21:25:28;7.57;;;3.90;;
13455;SDS011;6800;50.940;6.940;2022-07-17T21:29:29;4.72;;;2.50;;
13455;SDS011;6800;50.940;6.940;2022-07-17T21:33:29;5.93;;;2.70;;
13455;SDS011;6800;50.940;6.940;2022-07-17T21:37:30;4.43;;;2.40;;
13455;SDS011;6800;50.940;6.940;2022-07-17T21:41:30;7.00;;;2.67;;
13455;SDS011;6800;50.940;6.940;2022-07-17T21:45:30;4.20;;;2.33;;
13455;SDS011;6800;50.940;6.940;2022-07-17T21:49:30;3.65;;;2.05;;
13455;SDS011;6800;50.940;6.940;2022-07-17T21:53:32;2.45;;;1.60;;
13455;SDS011;6800;50.940;6.940;2022-07-17T21:57:33;3.45;;;1.85;;
13455;SDS011;6800;50.940;6.940;2022-07-17T22:01:33;2.97;;;1.70;;
13455;SDS011;6800;50.940;6.940;2022-07-17T22:05:35;2.45;;;1.77;;
13455;SDS011;6800;50.940;6.940;2022-07-17T22:09:36;5.18;;;1.98;;
13455;SDS011;6800;50.940;6.940;2022-07-17T22:13:37;4.60;;;1.60;;
13455;SDS011;6800;50.940;6.940;2022-07-17T22:17:37;3.28;;;1.50;;
13455;SDS011;6800;50.940;6.940;2022-07-17T22:21:38;5.38;;;1.90;;
13455;SDS011;6800;50.940;6.940;2022-07-17T22:25:39;3.65;;;1.42;;
13455;SDS011;6800;50.940;6.940;2022-07-17T22:29:40;4.00;;;1.58;;
13455;SDS011;6800;50.940;6.940;2022-07-17T22:33:40;2.45;;;1.52;;
13455;SDS011;6800;50.940;6.940;2022-07-17T22:37:40;4.75;;;1.63;;
13455;SDS011;6800;50.940;6.940;2022-07-17T22:41:41;2.65;;;1.25;;
13455;SDS011;6800;50.940;6.940;2022-07-17T22:45:41;3.08;;;1.45;;
13455;SDS011;6800;50.940;6.940;2022-07-17T22:49:42;4.13;;;1.35;;
13455;SDS011;6800;50.940;6.940;2022-07-17T22:53:43;3.45;;;1.48;;
13455;SDS011;6800;50.940;6.940;2022-07-17T22:57:43;3.03;;;1.77;;
13455;SDS011;6800;50.940;6.940;2022-07-17T23:01:44;2.42;;;1.50;;
13455;SDS011;6800;50.940;6.940;2022-07-17T23:05:45;2.70;;;1.23;;
13455;SDS011;6800;50.940;6.940;2022-07-17T23:09:46;2.83;;;1.30;;
13455;SDS011;6800;50.940;6.940;2022-07-17T23:13:46;3.05;;;1.30;;
13455;SDS011;6800;50.940;6.940;2022-07-17T23:17:47;2.78;;;1.20;;
13455;SDS011;6800;50.940;6.940;2022-07-17T23:21:47;2.85;;;1.27;;
13455;SDS011;6800;50.940;6.940;2022-07-17T23:25:48;2.08;;;1.30;;
13455;SDS011;6800;50.940;6.940;2022-07-17T23:29:48;3.38;;;1.60;;
13455;SDS011;6800;50.940;6.940;2022-07-17T23:33:48;3.40;;;1.30;;
13455;SDS011;6800;50.940;6.940;2022-07-17T23:37:48;3.55;;;1.27;;
13455;SDS011;6800;50.940;6.940;2022-07-17T23:41:49;3.05;;;1.55;;
13455;SDS011;6800;50.940;6.940;2022-07-17T23:45:50;3.93;;;1.67;;
13455;SDS011;6800;50.940;6.940;2022-07-17T23:49:50;5.07;;;2.47;;
13455;SDS011;6800;50.940;6.940;2022-07-17T23:53:50;3.35;;;2.20;;
13455;SDS011;6800;50.940;6.940;2022-07-17T23:57:51;4.80;;;2.50;;
